Time,TemperatureF,DewpointF,PressureIn,WindDirection,WindDirectionDegrees,WindSpeedMPH,WindSpeedGustMPH,Humidity,HourlyPrecipIn,Conditions,Clouds,dailyrainin,SoftwareType,DateUTC
2013-09-05 00:00:00,66.2,58.4,30.36,SW,232,0.0,0.0,76,-99.99,,,0.00,VWS V14.01,2013-09-05 04:00:00,
2013-09-05 00:30:00,66.0,58.6,30.36,SW,236,0.0,0.0,77,-99.99,,,0.00,VWS V14.01,2013-09-05 04:30:00,
2013-09-05 01:00:00,65.5,58.8,30.39,NE,43,0.0,0.0,79,-99.99,,,0.00,VWS V14.01,2013-09-05 05:00:00,
2013-09-05 01:30:00,65.7,59.7,30.36,ENE,60,0.0,0.0,81,-99.99,,,0.00,VWS V14.01,2013-09-05 05:30:00,
2013-09-05 02:00:00,65.7,60.0,30.36,ENE,60,0.0,0.0,82,-99.99,,,0.00,VWS V14.01,2013-09-05 06:00:00,
2013-09-05 02:30:00,65.5,60.5,30.36,ENE,61,0.0,0.0,84,-99.99,,,0.00,VWS V14.01,2013-09-05 06:30:00,
2013-09-05 03:00:00,64.9,60.0,30.36,ENE,60,0.0,0.0,84,-99.99,,,0.00,VWS V14.01,2013-09-05 07:00:00,
2013-09-05 03:30:00,64.6,59.6,30.33,ENE,60,0.0,0.0,84,-99.99,,,0.00,VWS V14.01,2013-09-05 07:30:00,
2013-09-05 04:00:00,64.2,59.3,30.33,ENE,58,0.0,0.0,84,-99.99,,,0.00,VWS V14.01,2013-09-05 08:00:00,
2013-09-05 04:30:00,63.7,59.1,30.33,ENE,59,0.0,0.0,85,-99.99,,,0.00,VWS V14.01,2013-09-05 08:30:00,
2013-09-05 05:00:00,63.3,58.7,30.36,ENE,58,0.0,0.0,85,-99.99,,,0.00,VWS V14.01,2013-09-05 09:00:00,
2013-09-05 05:30:00,63.0,58.7,30.36,ENE,57,0.0,0.0,86,-99.99,,,0.00,VWS V14.01,2013-09-05 09:30:00,
2013-09-05 06:00:00,63.1,58.9,30.33,ENE,57,0.0,0.0,86,-99.99,,,0.00,VWS V14.01,2013-09-05 10:00:00,
2013-09-05 06:30:00,63.0,59.0,30.36,ENE,59,0.0,0.0,87,-99.99,,,0.00,VWS V14.01,2013-09-05 10:30:00,
2013-09-05 07:00:00,63.0,59.0,30.36,ENE,58,0.0,0.0,87,-99.99,,,0.00,VWS V14.01,2013-09-05 11:00:00,
2013-09-05 07:30:00,63.0,59.4,30.36,ENE,58,0.0,0.0,88,-99.99,,,0.00,VWS V14.01,2013-09-05 11:30:00,
2013-09-05 08:00:00,63.1,59.5,30.39,ENE,60,0.0,0.0,88,-99.99,,,0.00,VWS V14.01,2013-09-05 12:00:00,
2013-09-05 08:30:00,63.9,60.6,30.39,ENE,59,0.0,0.0,89,-99.99,,,0.00,VWS V14.01,2013-09-05 12:30:00,
2013-09-05 09:00:00,65.1,61.8,30.39,ENE,58,0.0,0.0,89,-99.99,,,0.00,VWS V14.01,2013-09-05 13:00:00,
2013-09-05 09:30:00,66.7,63.7,30.39,NE,46,0.0,0.0,90,-99.99,,,0.00,VWS V14.01,2013-09-05 13:30:00,
2013-09-05 10:00:00,68.0,64.6,30.39,NE,45,0.0,0.0,89,-99.99,,,0.00,VWS V14.01,2013-09-05 14:00:00,
2013-09-05 10:30:00,69.4,66.1,30.39,NE,50,0.0,0.0,89,-99.99,,,0.00,VWS V14.01,2013-09-05 14:30:00,
2013-09-05 11:00:00,70.5,65.8,30.39,NE,38,0.0,0.0,85,-99.99,,,0.00,VWS V14.01,2013-09-05 15:00:00,
2013-09-05 11:30:00,72.9,65.2,30.39,NE,48,0.0,0.0,77,-99.99,,,0.00,VWS V14.01,2013-09-05 15:30:00,
2013-09-05 12:00:00,74.5,62.4,30.39,NE,47,0.0,0.0,66,-99.99,,,0.00,VWS V14.01,2013-09-05 16:00:00,
2013-09-05 12:30:00,76.6,63.6,30.39,NE,52,0.0,0.0,64,-99.99,,,0.00,VWS V14.01,2013-09-05 16:30:00,
2013-09-05 13:00:00,77.9,60.5,30.39,SW,227,0.0,0.0,55,-99.99,,,0.00,VWS V14.01,2013-09-05 17:00:00,
2013-09-05 13:30:00,78.8,58.6,30.39,SW,214,0.0,0.0,50,-99.99,,,0.00,VWS V14.01,2013-09-05 17:30:00,
2013-09-05 14:00:00,79.2,58.9,30.39,East,87,0.0,3.1,50,-99.99,,,0.00,VWS V14.01,2013-09-05 18:00:00,
2013-09-05 14:30:00,81.9,57.2,30.39,SW,222,0.0,6.3,43,-99.99,,,0.00,VWS V14.01,2013-09-05 18:30:00,
2013-09-05 15:00:00,79.9,55.4,30.39,NE,46,0.0,2.7,43,-99.99,,,0.00,VWS V14.01,2013-09-05 19:00:00,
2013-09-05 15:30:00,80.1,56.2,30.39,NNE,21,0.0,2.7,44,-99.99,,,0.00,VWS V14.01,2013-09-05 19:30:00,
2013-09-05 16:00:00,82.0,58.0,30.36,NE,49,0.0,0.0,44,-99.99,,,0.00,VWS V14.01,2013-09-05 20:00:00,
2013-09-05 16:30:00,81.5,55.5,30.36,ENE,70,0.0,5.4,41,-99.99,,,0.00,VWS V14.01,2013-09-05 20:30:00,
2013-09-05 17:00:00,82.6,57.2,30.36,NE,39,0.0,0.0,42,-99.99,,,0.00,VWS V14.01,2013-09-05 21:00:00,
2013-09-05 17:30:00,82.2,55.5,30.36,NE,53,0.0,0.0,40,-99.99,,,0.00,VWS V14.01,2013-09-05 21:30:00,
2013-09-05 18:00:00,78.8,54.4,30.36,ENE,72,0.0,3.6,43,-99.99,,,0.00,VWS V14.01,2013-09-05 22:00:00,
2013-09-05 18:30:00,76.8,55.7,30.36,ENE,64,0.0,0.0,48,-99.99,,,0.00,VWS V14.01,2013-09-05 22:30:00,
2013-09-05 19:00:00,75.0,55.1,30.36,NE,52,0.0,0.0,50,-99.99,,,0.00,VWS V14.01,2013-09-05 23:00:00,
2013-09-05 19:30:00,73.2,54.0,30.36,ENE,64,0.0,0.0,51,-99.99,,,0.00,VWS V14.01,2013-09-05 23:30:00,
2013-09-05 20:00:00,71.6,52.0,30.36,ENE,72,0.0,0.0,50,-99.99,,,0.00,VWS V14.01,2013-09-06 00:00:00,
2013-09-05 20:30:00,70.5,51.5,30.36,ENE,70,0.0,0.0,51,-99.99,,,0.00,VWS V14.01,2013-09-06 00:30:00,
2013-09-05 21:00:00,69.8,53.9,30.36,ENE,70,0.0,0.0,57,-99.99,,,0.00,VWS V14.01,2013-09-06 01:00:00,
2013-09-05 21:30:00,69.3,55.2,30.36,ENE,60,0.0,0.0,61,-99.99,,,0.00,VWS V14.01,2013-09-06 01:30:00,
2013-09-05 22:00:00,69.1,56.0,30.36,ENE,65,0.0,0.0,63,-99.99,,,0.00,VWS V14.01,2013-09-06 02:00:00,
2013-09-05 22:30:00,68.4,55.7,30.39,ENE,66,0.0,0.0,64,-99.99,,,0.00,VWS V14.01,2013-09-06 02:30:00,
2013-09-05 23:00:00,68.2,55.5,30.39,ENE,65,0.0,3.1,64,-99.99,,,0.00,VWS V14.01,2013-09-06 03:00:00,
2013-09-05 23:30:00,67.8,54.8,30.39,ENE,66,0.0,0.0,63,-99.99,,,0.00,VWS V14.01,2013-09-06 03:30:00,